createdAt,value
2023-02-03T00:13:53.833Z,1014.732
2023-02-03T00:44:10.487Z,1014.65
2023-02-03T01:14:27.582Z,1013.835
2023-02-03T01:44:46.056Z,1014.172
2023-02-03T02:15:03.233Z,1013.875
2023-02-03T02:45:22.080Z,1014.21
2023-02-03T03:15:37.869Z,1014.263
2023-02-03T03:45:55.547Z,1013.826
2023-02-03T04:16:12.429Z,1013.7869999999999
2023-02-03T04:46:29.057Z,1013.654
2023-02-03T05:16:47.129Z,1013.762
2023-02-03T05:47:04.583Z,1013.485
2023-02-03T06:17:21.478Z,1013.355
2023-02-03T06:47:40.007Z,1013.672
2023-02-03T07:17:57.937Z,1014.048
2023-02-03T07:48:17.116Z,1013.935
2023-02-03T08:18:36.320Z,1014.1010000000001
2023-02-03T08:48:55.626Z,1013.8939999999999
2023-02-03T09:19:13.555Z,1013.668
2023-02-03T09:49:32.351Z,1013.643
2023-02-03T10:19:51.372Z,1013.327
2023-02-03T10:50:09.602Z,1013.47
2023-02-03T11:20:25.500Z,1013.7810000000001
2023-02-03T11:50:45.579Z,1013.055
2023-02-03T12:21:01.245Z,1012.9019999999999
2023-02-03T12:51:17.199Z,1012.89
2023-02-03T13:21:33.319Z,1012.6060000000001
2023-02-03T13:51:51.944Z,1012.432
2023-02-03T14:22:09.264Z,1012.687
2023-02-03T14:52:26.093Z,1012.9989999999999
2023-02-03T15:22:42.642Z,1012.7589999999999
2023-02-03T15:53:00.323Z,1013.154
2023-02-03T16:23:18.274Z,1013.6110000000001
2023-02-03T16:53:35.265Z,1013.81
2023-02-03T17:23:55.500Z,1013.68
2023-02-03T17:54:12.621Z,1014.0089999999999
2023-02-03T18:24:29.154Z,1014.477
2023-02-03T18:54:46.258Z,1014.722
2023-02-03T19:25:03.268Z,1015.3960000000001
2023-02-03T19:55:20.471Z,1015.188
2023-02-03T20:25:37.891Z,1015.497
2023-02-03T20:55:56.176Z,1015.562
2023-02-03T21:26:14.445Z,1015.682
2023-02-03T21:56:32.205Z,1015.975
2023-02-03T22:26:49.626Z,1016.2639999999999
2023-02-03T22:57:07.377Z,1016.8
2023-02-03T23:27:24.325Z,1017.091
2023-02-03T23:57:41.448Z,1017.31
